BGGH

Nuuk Airport

Airport
ICAO code
BGGH
Summary
ICAO Region
NAT
ICAO Territory
Location

Nuuk,

Serving
Nuuk
Elevation
283 ft
Coordinates
64° 11' 27" N , 51° 40' 41" W
KCC
Metar
Observation
BGGH 260150Z AUTO 05013KT 7000NDV -SN FEW008/// OVC025/// 07/06 Q1000
Station
Godthaab / Nuuk
Date/Time
2022-09-26 01:50:00
Wind direction
50°
Wind speed
13 kts
Lowest cloud amount
few clouds
Temperature
7°C
Dew point
6°C
Humidity
93%
QNH
1000 hPa
Weather condition
n/a

Description

International airport serving Godthaab/Nuuk, Greenland.

Climatology

Tundra Climate (Köppen climate classification ET) - average temperature below 10°C in all twelve months of the year with very little precipitation.

Runways

Designator Length Width Surface Rops
5/23 950 30 ASP No/No

Airport map

Aerial View

Airport accidents

SKYbrary Partners:

Safety knowledge contributed by: